createdAt,value
2022-11-24T00:01:10.175Z,1.05
2022-11-24T00:03:37.285Z,0.90
2022-11-24T00:06:04.960Z,1.40
2022-11-24T00:08:31.473Z,1.77
2022-11-24T00:11:02.494Z,0.95
2022-11-24T00:13:28.859Z,1.33
2022-11-24T00:15:55.209Z,1.50
2022-11-24T00:18:21.595Z,1.30
2022-11-24T00:20:51.962Z,1.70
2022-11-24T00:23:18.312Z,1.40
2022-11-24T00:25:44.841Z,1.95
2022-11-24T00:28:11.539Z,2.28
2022-11-24T00:30:37.935Z,2.65
2022-11-24T00:33:04.348Z,1.80
2022-11-24T00:35:30.693Z,1.20
2022-11-24T00:37:57.058Z,1.98
2022-11-24T00:40:23.394Z,1.92
2022-11-24T00:42:50.096Z,1.33
2022-11-24T00:45:16.995Z,1.80
2022-11-24T00:47:43.354Z,1.95
2022-11-24T00:50:09.972Z,2.00
2022-11-24T00:52:36.325Z,2.00
2022-11-24T00:55:02.769Z,2.08
2022-11-24T00:57:29.108Z,2.08
2022-11-24T00:59:55.536Z,1.83
2022-11-24T01:02:21.930Z,2.28
2022-11-24T01:04:48.299Z,2.00
2022-11-24T01:07:14.683Z,2.33
2022-11-24T01:09:44.120Z,1.85
2022-11-24T01:12:10.526Z,2.25
2022-11-24T01:14:37.171Z,2.22
2022-11-24T01:17:04.177Z,2.20
2022-11-24T01:19:30.633Z,2.38
2022-11-24T01:21:56.988Z,2.40
2022-11-24T01:24:23.373Z,1.85
2022-11-24T01:26:49.719Z,2.65
2022-11-24T01:29:16.094Z,2.42
2022-11-24T01:31:42.485Z,2.67
2022-11-24T01:34:08.834Z,2.53
2022-11-24T01:36:35.248Z,3.60
2022-11-24T01:39:01.638Z,2.15
2022-11-24T01:41:28.038Z,2.67
2022-11-24T01:43:55.202Z,3.28
2022-11-24T01:46:36.742Z,2.73
2022-11-24T01:49:09.444Z,2.85
2022-11-24T01:51:36.937Z,2.75
2022-11-24T01:54:09.168Z,2.88
2022-11-24T01:56:37.234Z,3.55
2022-11-24T01:59:04.904Z,3.58
2022-11-24T02:01:32.190Z,3.05
2022-11-24T02:03:59.680Z,3.08
2022-11-24T02:06:27.907Z,2.83
2022-11-24T02:08:57.104Z,3.10
2022-11-24T02:11:24.330Z,2.40
2022-11-24T02:13:51.824Z,2.85
2022-11-24T02:16:18.304Z,2.85
2022-11-24T02:18:44.839Z,3.03
2022-11-24T02:21:11.969Z,3.10
2022-11-24T02:23:57.046Z,2.97
2022-11-24T02:26:32.529Z,2.88
2022-11-24T02:28:59.257Z,2.30
2022-11-24T02:31:25.691Z,3.25
2022-11-24T02:33:52.240Z,2.70
2022-11-24T02:36:19.380Z,2.97
2022-11-24T02:38:45.738Z,3.03
2022-11-24T02:41:13.744Z,3.08
2022-11-24T02:46:06.918Z,3.53
2022-11-24T02:48:33.315Z,3.05
2022-11-24T02:50:59.685Z,3.33
2022-11-24T02:53:26.035Z,3.28
2022-11-24T02:55:53.131Z,3.03
2022-11-24T02:58:19.474Z,3.93
2022-11-24T03:00:45.832Z,2.80
2022-11-24T03:03:12.442Z,3.42
2022-11-24T03:05:38.916Z,2.95
2022-11-24T03:08:05.518Z,2.95
2022-11-24T03:10:32.036Z,3.28
2022-11-24T03:12:58.694Z,3.65
2022-11-24T03:15:25.079Z,4.20
2022-11-24T03:17:55.065Z,3.38
2022-11-24T03:20:21.390Z,3.80
2022-11-24T03:22:47.782Z,3.28
2022-11-24T03:25:14.167Z,3.15
2022-11-24T03:27:40.595Z,3.53
2022-11-24T03:30:07.253Z,3.33
2022-11-24T03:32:33.586Z,3.15
2022-11-24T03:34:59.917Z,3.42
2022-11-24T03:37:26.349Z,3.50
2022-11-24T03:39:52.763Z,3.30
2022-11-24T03:42:19.142Z,3.15
2022-11-24T03:44:45.489Z,3.63
2022-11-24T03:47:12.481Z,3.53
2022-11-24T03:49:38.947Z,3.22
2022-11-24T03:52:08.279Z,3.10
2022-11-24T03:54:35.176Z,2.67
2022-11-24T03:57:01.855Z,2.33
2022-11-24T03:59:28.209Z,3.13
2022-11-24T04:01:54.795Z,2.75
2022-11-24T04:04:21.289Z,3.50
2022-11-24T04:06:47.616Z,3.35
2022-11-24T04:09:13.976Z,3.60
2022-11-24T04:11:58.669Z,4.10
2022-11-24T04:14:25.197Z,3.08
2022-11-24T04:16:51.588Z,3.28
2022-11-24T04:19:17.937Z,3.30
2022-11-24T04:21:44.248Z,2.70
2022-11-24T04:24:10.651Z,2.50
2022-11-24T04:26:37.099Z,3.25
2022-11-24T04:29:03.510Z,3.55
2022-11-24T04:31:29.935Z,3.35
2022-11-24T04:33:56.318Z,3.30
2022-11-24T04:36:22.780Z,3.88
2022-11-24T04:39:23.540Z,3.28
2022-11-24T04:41:35.442Z,3.33
2022-11-24T04:44:03.024Z,3.55
2022-11-24T04:46:29.589Z,2.50
2022-11-24T04:48:56.082Z,3.35
2022-11-24T04:51:22.521Z,3.35
2022-11-24T04:53:49.614Z,2.90
2022-11-24T04:56:16.011Z,2.70
2022-11-24T04:58:42.317Z,3.58
2022-11-24T05:01:08.719Z,3.15
2022-11-24T05:03:38.447Z,3.15
2022-11-24T05:06:05.023Z,3.08
2022-11-24T05:08:31.391Z,3.92
2022-11-24T05:10:58.103Z,2.85
2022-11-24T05:13:24.500Z,3.65
2022-11-24T05:15:50.895Z,3.65
2022-11-24T05:18:17.279Z,3.50
2022-11-24T05:20:46.788Z,3.40
2022-11-24T05:23:13.221Z,3.70
2022-11-24T05:25:40.524Z,3.13
2022-11-24T05:28:10.084Z,3.22
2022-11-24T05:30:38.365Z,3.75
2022-11-24T05:33:05.765Z,3.35
2022-11-24T05:35:32.272Z,3.38
2022-11-24T05:37:58.821Z,3.40
2022-11-24T05:40:25.574Z,2.85
2022-11-24T05:42:51.952Z,3.58
2022-11-24T05:45:19.366Z,3.10
2022-11-24T05:47:46.150Z,3.28
2022-11-24T05:50:13.735Z,3.38
2022-11-24T05:52:40.277Z,3.03
2022-11-24T05:55:07.238Z,3.35
2022-11-24T05:57:33.653Z,3.60
2022-11-24T06:00:00.275Z,2.83
2022-11-24T06:02:26.667Z,3.70
2022-11-24T06:04:53.144Z,3.63
2022-11-24T06:07:19.657Z,3.97
2022-11-24T06:09:46.099Z,3.13
2022-11-24T06:12:13.367Z,4.20
2022-11-24T06:14:39.788Z,3.70
2022-11-24T06:17:06.565Z,2.78
2022-11-24T06:19:32.942Z,3.95
2022-11-24T06:21:59.410Z,3.90
2022-11-24T06:24:25.753Z,3.80
2022-11-24T06:26:52.146Z,3.92
2022-11-24T06:29:18.505Z,4.10
2022-11-24T06:31:44.897Z,5.32
2022-11-24T06:34:13.119Z,4.28
2022-11-24T06:36:39.757Z,4.30
2022-11-24T06:39:06.750Z,3.65
2022-11-24T06:41:33.220Z,4.03
2022-11-24T06:44:01.843Z,4.10
2022-11-24T06:46:28.164Z,4.63
2022-11-24T06:48:54.507Z,5.40
2022-11-24T06:51:20.886Z,4.88
2022-11-24T06:53:47.311Z,5.63
2022-11-24T06:56:16.767Z,4.65
2022-11-24T06:58:47.441Z,5.30
2022-11-24T07:01:14.742Z,4.82
2022-11-24T07:03:41.088Z,4.57
2022-11-24T07:06:07.441Z,3.58
2022-11-24T07:08:33.865Z,4.20
2022-11-24T07:11:07.742Z,4.13
2022-11-24T07:13:34.147Z,4.78
2022-11-24T07:16:00.789Z,4.55
2022-11-24T07:18:27.197Z,4.22
2022-11-24T07:20:53.545Z,5.13
2022-11-24T07:23:19.930Z,4.47
2022-11-24T07:25:46.265Z,4.70
2022-11-24T07:28:12.597Z,5.10
2022-11-24T07:30:38.940Z,5.30
2022-11-24T07:33:05.414Z,5.78
2022-11-24T07:35:31.890Z,4.90
2022-11-24T07:37:58.422Z,4.53
2022-11-24T07:40:26.885Z,7.00
2022-11-24T07:42:53.984Z,7.25
2022-11-24T07:45:20.803Z,6.00
2022-11-24T07:47:47.164Z,6.13
2022-11-24T07:50:13.681Z,5.22
2022-11-24T07:52:40.148Z,4.90
2022-11-24T07:55:07.755Z,5.53
2022-11-24T07:57:35.063Z,5.68
2022-11-24T08:00:01.871Z,5.07
2022-11-24T08:02:28.226Z,5.78
2022-11-24T08:04:54.588Z,5.88
2022-11-24T08:07:21.004Z,5.40
2022-11-24T08:09:47.503Z,5.53
2022-11-24T08:12:13.922Z,6.35
2022-11-24T08:14:40.243Z,4.80
2022-11-24T08:17:06.795Z,5.68
2022-11-24T08:19:33.269Z,5.50
2022-11-24T08:21:59.627Z,5.88
2022-11-24T08:24:26.826Z,4.68
2022-11-24T08:26:53.170Z,6.47
2022-11-24T08:29:19.542Z,4.97
2022-11-24T08:31:45.970Z,4.97
2022-11-24T08:34:12.345Z,6.45
2022-11-24T08:36:39.067Z,5.60
2022-11-24T08:39:05.735Z,5.35
2022-11-24T08:41:32.254Z,5.10
2022-11-24T08:43:58.614Z,5.57
2022-11-24T08:46:25.246Z,4.38
2022-11-24T08:48:52.540Z,4.93
2022-11-24T08:51:20.684Z,4.70
2022-11-24T08:53:47.321Z,5.60
2022-11-24T08:56:13.699Z,5.07
2022-11-24T08:58:40.499Z,5.13
2022-11-24T09:01:11.281Z,4.78
2022-11-24T09:03:38.755Z,5.22
2022-11-24T09:06:06.191Z,4.45
2022-11-24T09:08:33.160Z,4.18
2022-11-24T09:11:00.315Z,4.43
2022-11-24T09:13:26.713Z,4.78
2022-11-24T09:15:53.034Z,4.63
2022-11-24T09:18:19.619Z,4.70
2022-11-24T09:20:45.984Z,4.47
2022-11-24T09:23:12.969Z,4.00
2022-11-24T09:25:39.373Z,4.33
2022-11-24T09:28:06.421Z,4.63
2022-11-24T09:30:32.836Z,3.57
2022-11-24T09:32:59.236Z,4.38
2022-11-24T09:35:27.083Z,4.03
2022-11-24T09:40:25.916Z,4.85
2022-11-24T09:43:15.627Z,3.92
2022-11-24T09:46:07.057Z,3.72
2022-11-24T09:48:39.645Z,4.63
2022-11-24T09:51:09.572Z,4.40
2022-11-24T09:54:08.377Z,4.90
2022-11-24T09:56:36.656Z,4.22
2022-11-24T09:59:02.962Z,5.00
2022-11-24T10:01:35.061Z,5.15
2022-11-24T10:04:06.322Z,4.38
2022-11-24T10:06:53.155Z,4.65
2022-11-24T10:09:19.509Z,4.43
2022-11-24T10:11:50.881Z,3.28
2022-11-24T10:14:36.070Z,4.32
2022-11-24T10:17:12.655Z,3.53
2022-11-24T10:19:56.001Z,4.22
2022-11-24T10:22:35.799Z,3.45
2022-11-24T10:25:20.937Z,4.05
2022-11-24T10:27:50.615Z,4.05
2022-11-24T10:30:21.524Z,3.97
2022-11-24T10:32:58.474Z,3.97
2022-11-24T10:35:30.267Z,3.75
2022-11-24T10:37:56.676Z,3.13
2022-11-24T10:40:56.501Z,4.57
2022-11-24T10:43:25.917Z,3.88
2022-11-24T10:45:52.537Z,3.90
2022-11-24T10:48:22.756Z,4.25
2022-11-24T10:50:49.214Z,4.03
2022-11-24T10:53:23.512Z,3.78
2022-11-24T10:55:59.011Z,3.20
2022-11-24T10:58:28.765Z,3.85
2022-11-24T11:01:13.522Z,3.60
2022-11-24T11:03:51.218Z,3.75
2022-11-24T11:06:24.843Z,4.30
2022-11-24T11:09:11.294Z,3.75
2022-11-24T11:11:41.868Z,3.60
2022-11-24T11:14:10.875Z,3.00
2022-11-24T11:16:39.574Z,3.90
2022-11-24T11:19:47.265Z,3.72
2022-11-24T11:22:11.586Z,3.58
2022-11-24T11:24:39.597Z,2.80
2022-11-24T11:27:16.718Z,3.40
2022-11-24T11:35:18.528Z,3.63
2022-11-24T11:37:45.247Z,3.55
2022-11-24T11:40:15.946Z,4.10
2022-11-24T11:45:35.287Z,4.00
2022-11-24T11:48:03.162Z,3.63
2022-11-24T11:53:21.504Z,3.50
2022-11-24T11:55:50.110Z,2.88
2022-11-24T11:58:23.489Z,3.35
2022-11-24T12:00:59.440Z,3.38
2022-11-24T12:03:41.195Z,3.67
2022-11-24T12:06:22.629Z,3.80
2022-11-24T12:09:19.361Z,3.63
2022-11-24T12:12:02.910Z,3.40
2022-11-24T12:14:48.218Z,3.77
2022-11-24T12:17:33.470Z,3.35
2022-11-24T12:20:07.375Z,3.25
2022-11-24T12:22:48.054Z,3.40
2022-11-24T12:25:26.941Z,2.28
2022-11-24T12:28:06.429Z,2.63
2022-11-24T12:30:59.449Z,3.58
2022-11-24T12:33:33.662Z,3.80
2022-11-24T12:36:07.666Z,2.78
2022-11-24T12:38:36.806Z,2.92
2022-11-24T12:41:41.297Z,3.45
2022-11-24T12:44:30.784Z,3.75
2022-11-24T12:47:02.833Z,3.22
2022-11-24T12:49:38.459Z,3.20
2022-11-24T12:52:09.176Z,3.60
2022-11-24T12:54:40.760Z,3.05
2022-11-24T12:57:09.371Z,3.15
2022-11-24T12:59:54.968Z,3.40
2022-11-24T13:02:30.804Z,3.35
2022-11-24T13:05:12.223Z,3.35
2022-11-24T13:07:43.381Z,3.00
2022-11-24T13:10:40.445Z,2.42
2022-11-24T13:13:12.026Z,2.20
2022-11-24T13:18:57.278Z,3.10
2022-11-24T13:21:30.895Z,3.20
2022-11-24T13:23:58.200Z,3.33
2022-11-24T13:26:29.411Z,2.85
2022-11-24T13:29:13.420Z,2.47
2022-11-24T13:31:51.072Z,2.88
2022-11-24T13:34:36.457Z,2.03
2022-11-24T13:37:31.126Z,2.05
2022-11-24T13:39:59.482Z,1.92
2022-11-24T13:42:42.313Z,3.15
2022-11-24T13:45:30.483Z,2.65
2022-11-24T13:47:56.941Z,2.10
2022-11-24T13:50:24.940Z,2.13
2022-11-24T13:53:06.558Z,1.80
2022-11-24T13:55:34.772Z,1.73
2022-11-24T13:58:10.246Z,1.80
2022-11-24T14:00:58.457Z,1.80
2022-11-24T14:03:35.227Z,1.90
2022-11-24T14:06:02.270Z,1.50
2022-11-24T14:08:34.044Z,2.17
2022-11-24T14:11:01.537Z,2.10
2022-11-24T14:13:29.420Z,2.08
2022-11-24T14:18:22.742Z,2.38
2022-11-24T14:20:49.164Z,2.15
2022-11-24T14:23:15.526Z,2.67
2022-11-24T14:25:46.713Z,2.53
2022-11-24T14:28:15.299Z,2.40
2022-11-24T14:30:41.806Z,2.35
2022-11-24T14:33:12.488Z,1.88
2022-11-24T14:35:50.195Z,2.55
2022-11-24T14:40:48.230Z,1.70
2022-11-24T14:43:19.846Z,2.30
2022-11-24T14:46:09.615Z,2.05
2022-11-24T14:48:39.792Z,2.17
2022-11-24T14:51:08.400Z,1.33
2022-11-24T14:53:35.630Z,1.77
2022-11-24T14:56:10.585Z,1.23
2022-11-24T14:58:41.979Z,1.58
2022-11-24T15:01:10.828Z,1.20
2022-11-24T15:03:37.369Z,1.25
2022-11-24T15:06:04.044Z,1.05
2022-11-24T15:08:37.301Z,1.67
2022-11-24T15:11:04.480Z,1.77
2022-11-24T15:13:34.388Z,1.23
2022-11-24T15:16:03.450Z,1.60
2022-11-24T15:18:32.970Z,1.60
2022-11-24T15:20:59.392Z,1.50
2022-11-24T15:23:28.975Z,1.70
2022-11-24T15:26:18.358Z,1.58
2022-11-24T15:28:47.558Z,1.60
2022-11-24T15:31:14.674Z,1.73
2022-11-24T15:33:41.512Z,1.30
2022-11-24T15:36:08.117Z,1.63
2022-11-24T15:38:34.567Z,1.65
2022-11-24T15:41:01.317Z,1.38
2022-11-24T15:43:27.680Z,1.30
2022-11-24T15:45:54.060Z,2.40
2022-11-24T15:48:20.580Z,2.38
2022-11-24T15:50:47.212Z,2.00
2022-11-24T15:53:20.051Z,1.70
2022-11-24T15:55:46.826Z,1.27
2022-11-24T15:58:14.025Z,1.92
2022-11-24T16:00:40.884Z,1.95
2022-11-24T16:03:38.360Z,1.55
2022-11-24T16:05:54.688Z,1.90
2022-11-24T16:08:21.222Z,1.60
2022-11-24T16:10:47.656Z,2.45
2022-11-24T16:13:14.101Z,2.22
2022-11-24T16:15:40.630Z,2.65
2022-11-24T16:18:07.025Z,1.95
2022-11-24T16:20:35.774Z,2.05
2022-11-24T16:23:03.006Z,2.72
2022-11-24T16:25:29.469Z,1.75
2022-11-24T16:27:55.889Z,2.45
2022-11-24T16:30:22.309Z,2.00
2022-11-24T16:32:48.716Z,2.55
2022-11-24T16:35:15.183Z,3.28
2022-11-24T16:37:41.606Z,1.90
2022-11-24T16:40:08.338Z,2.15
2022-11-24T16:42:34.965Z,2.63
2022-11-24T16:45:01.741Z,2.33
2022-11-24T16:47:28.123Z,2.22
2022-11-24T16:49:54.558Z,2.90
2022-11-24T16:52:20.986Z,2.28
2022-11-24T16:54:47.710Z,2.45
2022-11-24T16:57:14.910Z,3.15
2022-11-24T16:59:43.390Z,3.15
2022-11-24T17:02:12.070Z,3.20
2022-11-24T17:04:38.517Z,9.43
2022-11-24T17:07:04.906Z,4.60
2022-11-24T17:09:34.807Z,2.65
2022-11-24T17:12:03.935Z,2.38
2022-11-24T17:14:30.414Z,2.97
2022-11-24T17:16:56.889Z,2.72
2022-11-24T17:19:23.499Z,3.75
2022-11-24T17:21:49.853Z,4.28
2022-11-24T17:24:18.191Z,3.97
2022-11-24T17:26:48.988Z,4.68
2022-11-24T17:29:15.630Z,4.60
2022-11-24T17:31:42.244Z,4.35
2022-11-24T17:34:10.580Z,4.80
2022-11-24T17:36:37.210Z,4.65
2022-11-24T17:39:04.646Z,4.03
2022-11-24T17:41:31.614Z,3.65
2022-11-24T17:43:58.206Z,3.85
2022-11-24T17:46:25.307Z,4.18
2022-11-24T17:48:51.768Z,3.10
2022-11-24T17:51:19.095Z,3.17
2022-11-24T17:53:46.926Z,3.55
2022-11-24T17:56:14.322Z,3.85
2022-11-24T17:58:43.142Z,3.83
2022-11-24T18:01:10.092Z,3.22
2022-11-24T18:03:38.109Z,3.45
2022-11-24T18:08:34.677Z,3.25
2022-11-24T18:11:08.387Z,3.42
2022-11-24T18:13:55.777Z,4.28
2022-11-24T18:16:21.209Z,4.10
2022-11-24T18:18:51.065Z,4.25
2022-11-24T18:21:17.611Z,4.93
2022-11-24T18:23:44.121Z,4.15
2022-11-24T18:26:12.562Z,4.50
2022-11-24T18:28:39.448Z,4.15
2022-11-24T18:31:07.167Z,3.67
2022-11-24T18:33:37.962Z,4.25
2022-11-24T18:36:06.469Z,4.32
2022-11-24T18:38:35.278Z,3.53
2022-11-24T18:41:01.733Z,3.20
2022-11-24T18:43:28.891Z,3.58
2022-11-24T18:45:55.841Z,3.85
2022-11-24T18:48:23.049Z,4.07
2022-11-24T18:50:51.442Z,3.70
2022-11-24T18:53:18.417Z,3.13
2022-11-24T18:55:53.311Z,2.47
2022-11-24T18:58:20.188Z,2.55
2022-11-24T19:00:46.724Z,2.90
2022-11-24T19:03:14.006Z,2.83
2022-11-24T19:05:41.931Z,2.35
2022-11-24T19:10:38.243Z,3.13
2022-11-24T19:13:05.429Z,2.20
2022-11-24T19:15:32.918Z,2.55
2022-11-24T19:18:07.785Z,3.00
2022-11-24T19:20:34.304Z,2.28
2022-11-24T19:23:00.656Z,2.90
2022-11-24T19:25:27.018Z,3.10
2022-11-24T19:27:53.349Z,3.15
2022-11-24T19:30:19.764Z,2.72
2022-11-24T19:32:46.256Z,2.30
2022-11-24T19:35:13.507Z,2.67
2022-11-24T19:37:41.661Z,3.10
2022-11-24T19:42:34.844Z,2.90
2022-11-24T19:45:01.246Z,3.58
2022-11-24T19:47:28.513Z,2.70
2022-11-24T19:49:55.825Z,2.85
2022-11-24T19:52:22.980Z,2.90
2022-11-24T19:54:49.357Z,3.10
2022-11-24T19:57:16.313Z,3.28
2022-11-24T19:59:43.395Z,3.28
2022-11-24T20:02:09.832Z,3.42
2022-11-24T20:04:39.735Z,2.65
2022-11-24T20:07:06.223Z,2.90
2022-11-24T20:09:35.216Z,2.42
2022-11-24T20:12:01.753Z,3.05
2022-11-24T20:14:28.119Z,3.40
2022-11-24T20:16:54.629Z,3.85
2022-11-24T20:19:21.308Z,4.47
2022-11-24T20:21:49.888Z,3.97
2022-11-24T20:24:22.477Z,3.95
2022-11-24T20:26:51.351Z,4.03
2022-11-24T20:29:17.861Z,3.58
2022-11-24T20:31:45.680Z,3.60
2022-11-24T20:34:14.754Z,4.40
2022-11-24T20:36:42.218Z,3.70
2022-11-24T20:39:12.731Z,3.92
2022-11-24T20:41:40.163Z,3.75
2022-11-24T20:44:08.426Z,3.35
2022-11-24T20:46:38.632Z,3.78
2022-11-24T20:49:06.618Z,3.60
2022-11-24T20:54:01.084Z,3.17
2022-11-24T20:56:28.938Z,3.22
2022-11-24T20:58:55.885Z,2.40
2022-11-24T21:01:26.819Z,2.83
2022-11-24T21:03:54.694Z,2.15
2022-11-24T21:06:21.126Z,2.50
2022-11-24T21:08:48.839Z,3.20
2022-11-24T21:11:15.356Z,3.08
2022-11-24T21:13:42.958Z,2.65
2022-11-24T21:16:13.400Z,2.85
2022-11-24T21:18:39.975Z,3.58
2022-11-24T21:21:06.680Z,2.97
2022-11-24T21:23:33.145Z,2.58
2022-11-24T21:26:05.597Z,2.83
2022-11-24T21:28:32.799Z,1.92
2022-11-24T21:31:09.698Z,2.78
2022-11-24T21:33:43.270Z,2.13
2022-11-24T21:36:09.689Z,2.28
2022-11-24T21:38:36.175Z,2.10
2022-11-24T21:41:03.419Z,2.55
2022-11-24T21:43:30.500Z,2.40
2022-11-24T21:46:04.285Z,2.37
2022-11-24T21:48:31.075Z,2.00
2022-11-24T21:50:58.446Z,2.97
2022-11-24T21:53:25.308Z,2.17
2022-11-24T21:55:58.673Z,2.75
2022-11-24T21:58:25.595Z,2.92
2022-11-24T22:00:52.429Z,2.60
2022-11-24T22:03:19.404Z,2.30
2022-11-24T22:05:55.605Z,2.65
2022-11-24T22:08:22.376Z,3.50
2022-11-24T22:10:48.772Z,2.42
2022-11-24T22:13:15.747Z,3.00
2022-11-24T22:15:42.272Z,2.72
2022-11-24T22:18:08.960Z,2.88
2022-11-24T22:20:35.527Z,3.45
2022-11-24T22:23:01.976Z,3.25
2022-11-24T22:25:28.360Z,3.47
2022-11-24T22:27:54.810Z,2.90
2022-11-24T22:30:21.214Z,2.53
2022-11-24T22:32:47.596Z,2.65
2022-11-24T22:35:13.987Z,3.15
2022-11-24T22:37:40.360Z,3.42
2022-11-24T22:40:07.132Z,2.90
2022-11-24T22:42:33.581Z,3.63
2022-11-24T22:45:00.996Z,3.03
2022-11-24T22:47:27.590Z,3.00
2022-11-24T22:49:54.741Z,3.05
2022-11-24T22:52:21.230Z,2.65
2022-11-24T22:54:47.551Z,2.92
2022-11-24T22:57:13.953Z,2.63
2022-11-24T22:59:40.298Z,2.97
2022-11-24T23:02:06.687Z,2.70
2022-11-24T23:04:33.723Z,3.75
2022-11-24T23:07:00.312Z,2.45
2022-11-24T23:09:27.103Z,2.45
2022-11-24T23:11:53.448Z,3.47
2022-11-24T23:14:19.847Z,2.60
2022-11-24T23:16:46.403Z,4.15
2022-11-24T23:19:12.833Z,2.92
2022-11-24T23:21:39.480Z,2.85
2022-11-24T23:24:06.678Z,2.97
2022-11-24T23:26:34.801Z,3.05
2022-11-24T23:29:01.188Z,3.42
2022-11-24T23:31:28.864Z,2.38
2022-11-24T23:36:21.936Z,3.25
2022-11-24T23:38:48.495Z,3.08
2022-11-24T23:41:16.515Z,2.88
2022-11-24T23:46:12.054Z,3.00
2022-11-24T23:48:39.132Z,2.92
2022-11-24T23:51:11.358Z,2.40
2022-11-24T23:53:37.875Z,3.72
2022-11-24T23:56:04.480Z,2.45
2022-11-24T23:58:30.942Z,3.70
